createdAt,value
2023-03-11T00:00:30.445Z,0.70
2023-03-11T00:02:58.922Z,0.65
2023-03-11T00:05:31.728Z,0.60
2023-03-11T00:07:58.389Z,0.80
2023-03-11T00:10:33.805Z,0.55
2023-03-11T00:13:00.809Z,0.80
2023-03-11T00:15:28.873Z,0.55
2023-03-11T00:17:55.316Z,0.60
2023-03-11T00:20:25.382Z,0.70
2023-03-11T00:22:52.697Z,0.80
2023-03-11T00:25:20.395Z,0.63
2023-03-11T00:27:46.879Z,0.40
2023-03-11T00:30:14.753Z,0.80
2023-03-11T00:32:41.376Z,0.73
2023-03-11T00:35:08.950Z,1.00
2023-03-11T00:37:35.350Z,1.07
2023-03-11T00:40:01.818Z,0.35
2023-03-11T00:42:28.211Z,0.50
2023-03-11T00:44:54.544Z,0.70
2023-03-11T00:47:20.893Z,0.70
2023-03-11T00:49:47.220Z,0.40
2023-03-11T00:52:13.618Z,0.63
2023-03-11T00:54:39.985Z,1.23
2023-03-11T00:57:06.397Z,0.90
2023-03-11T00:59:34.921Z,0.82
2023-03-11T01:02:01.308Z,0.70
2023-03-11T01:04:27.769Z,0.45
2023-03-11T01:06:54.194Z,0.50
2023-03-11T01:09:20.533Z,0.63
2023-03-11T01:11:46.842Z,0.38
2023-03-11T01:14:13.310Z,0.97
2023-03-11T01:16:39.725Z,0.40
2023-03-11T01:19:07.150Z,0.70
2023-03-11T01:21:33.562Z,0.90
2023-03-11T01:23:59.957Z,0.40
2023-03-11T01:26:26.291Z,0.70
2023-03-11T01:28:52.706Z,0.85
2023-03-11T01:31:19.249Z,0.73
2023-03-11T01:33:45.594Z,1.27
2023-03-11T01:36:12.086Z,0.50
2023-03-11T01:38:38.816Z,0.80
2023-03-11T01:41:05.966Z,0.60
2023-03-11T01:43:44.310Z,0.50
2023-03-11T01:46:48.158Z,0.60
2023-03-11T01:49:14.520Z,0.40
2023-03-11T01:51:54.171Z,0.73
2023-03-11T01:54:28.305Z,0.50
2023-03-11T01:56:55.987Z,0.40
2023-03-11T01:59:30.744Z,0.52
2023-03-11T02:02:17.313Z,0.40
2023-03-11T02:04:44.087Z,0.30
2023-03-11T02:07:11.743Z,0.75
2023-03-11T02:09:38.496Z,0.50
2023-03-11T02:12:06.970Z,0.50
2023-03-11T02:14:35.713Z,0.80
2023-03-11T02:17:03.288Z,0.50
2023-03-11T02:20:07.337Z,0.55
2023-03-11T02:22:34.558Z,0.50
2023-03-11T02:25:42.981Z,1.35
2023-03-11T02:28:12.553Z,0.40
2023-03-11T02:30:41.992Z,0.30
2023-03-11T02:33:09.746Z,0.57
2023-03-11T02:35:36.837Z,0.60
2023-03-11T02:38:03.231Z,0.80
2023-03-11T02:40:49.580Z,0.52
2023-03-11T02:43:19.626Z,0.30
2023-03-11T02:45:48.190Z,0.40
2023-03-11T02:48:16.683Z,0.82
2023-03-11T02:50:44.237Z,0.50
2023-03-11T02:53:10.623Z,0.30
2023-03-11T02:55:37.061Z,0.30
2023-03-11T02:58:03.479Z,0.45
2023-03-11T03:00:30.124Z,0.70
2023-03-11T03:02:56.569Z,0.60
2023-03-11T03:05:23.329Z,0.65
2023-03-11T03:07:50.742Z,0.60
2023-03-11T03:10:18.167Z,0.30
2023-03-11T03:12:44.608Z,0.40
2023-03-11T03:15:11.826Z,0.47
2023-03-11T03:17:38.692Z,0.52
2023-03-11T03:20:11.224Z,0.40
2023-03-11T03:22:38.948Z,0.43
2023-03-11T03:25:05.883Z,0.40
2023-03-11T03:27:33.964Z,0.50
2023-03-11T03:30:00.394Z,0.50
2023-03-11T03:32:26.762Z,0.30
2023-03-11T03:34:58.271Z,0.90
2023-03-11T03:37:26.413Z,0.65
2023-03-11T03:39:53.538Z,0.43
2023-03-11T03:42:20.537Z,0.93
2023-03-11T03:44:46.901Z,0.40
2023-03-11T03:47:13.356Z,0.60
2023-03-11T03:49:39.783Z,0.40
2023-03-11T03:52:07.029Z,0.50
2023-03-11T03:54:33.540Z,0.50
2023-03-11T03:57:00.880Z,0.33
2023-03-11T03:59:27.199Z,0.40
2023-03-11T04:01:53.650Z,0.52
2023-03-11T04:04:20.056Z,0.70
2023-03-11T04:06:46.535Z,0.52
2023-03-11T04:09:13.125Z,0.53
2023-03-11T04:11:39.537Z,0.60
2023-03-11T04:14:06.442Z,0.45
2023-03-11T04:16:33.272Z,0.30
2023-03-11T04:18:59.693Z,0.30
2023-03-11T04:21:26.032Z,0.50
2023-03-11T04:23:52.366Z,0.88
2023-03-11T04:26:18.861Z,0.35
2023-03-11T04:28:45.247Z,0.80
2023-03-11T04:31:12.509Z,0.40
2023-03-11T04:33:38.857Z,0.30
2023-03-11T04:36:07.090Z,0.47
2023-03-11T04:38:33.565Z,0.40
2023-03-11T04:41:01.505Z,0.50
2023-03-11T04:43:27.844Z,0.43
2023-03-11T04:45:54.363Z,0.73
2023-03-11T04:48:20.828Z,0.47
2023-03-11T04:50:47.275Z,0.40
2023-03-11T04:53:13.707Z,0.63
2023-03-11T04:55:40.140Z,0.50
2023-03-11T04:58:06.545Z,0.67
2023-03-11T05:00:33.032Z,0.70
2023-03-11T05:02:59.466Z,0.30
2023-03-11T05:05:25.958Z,0.60
2023-03-11T05:07:52.406Z,0.50
2023-03-11T05:10:24.773Z,0.40
2023-03-11T05:12:51.713Z,0.50
2023-03-11T05:15:18.917Z,0.52
2023-03-11T05:17:45.860Z,0.50
2023-03-11T05:20:15.531Z,0.22
2023-03-11T05:22:42.212Z,0.53
2023-03-11T05:25:09.183Z,0.35
2023-03-11T05:27:35.501Z,0.50
2023-03-11T05:30:01.921Z,0.57
2023-03-11T05:32:28.289Z,0.40
2023-03-11T05:34:54.680Z,0.30
2023-03-11T05:37:21.042Z,0.40
2023-03-11T05:39:47.583Z,0.50
2023-03-11T05:42:13.921Z,0.35
2023-03-11T05:44:41.400Z,0.30
2023-03-11T05:47:07.826Z,0.40
2023-03-11T05:49:34.168Z,0.80
2023-03-11T05:52:00.536Z,0.40
2023-03-11T05:54:26.877Z,0.47
2023-03-11T05:56:53.224Z,0.30
2023-03-11T05:59:19.668Z,0.70
2023-03-11T06:01:46.079Z,0.30
2023-03-11T06:04:12.700Z,0.57
2023-03-11T06:06:41.101Z,1.05
2023-03-11T06:09:11.662Z,0.60
2023-03-11T06:11:38.053Z,0.47
2023-03-11T06:14:04.479Z,0.70
2023-03-11T06:16:30.840Z,0.65
2023-03-11T06:18:58.011Z,0.40
2023-03-11T06:21:24.489Z,0.50
2023-03-11T06:23:51.126Z,0.50
2023-03-11T06:26:20.290Z,0.65
2023-03-11T06:28:47.935Z,0.40
2023-03-11T06:31:17.170Z,0.63
2023-03-11T06:33:44.168Z,0.60
2023-03-11T06:36:13.349Z,0.53
2023-03-11T06:38:39.766Z,0.40
2023-03-11T06:41:07.280Z,0.70
2023-03-11T06:43:34.834Z,0.40
2023-03-11T06:46:02.152Z,0.60
2023-03-11T06:48:28.668Z,0.53
2023-03-11T06:50:56.780Z,0.60
2023-03-11T06:53:23.817Z,0.70
2023-03-11T06:56:11.092Z,0.60
2023-03-11T06:58:39.226Z,0.68
2023-03-11T07:01:08.697Z,0.63
2023-03-11T07:03:35.068Z,0.60
2023-03-11T07:06:01.560Z,0.55
2023-03-11T07:08:28.808Z,0.73
2023-03-11T07:11:16.512Z,0.82
2023-03-11T07:13:43.814Z,0.50
2023-03-11T07:16:15.591Z,0.60
2023-03-11T07:18:43.769Z,0.80
2023-03-11T07:21:14.218Z,0.70
2023-03-11T07:23:40.979Z,0.70
2023-03-11T07:26:15.342Z,0.73
2023-03-11T07:28:42.347Z,0.47
2023-03-11T07:31:21.183Z,0.57
2023-03-11T07:33:47.640Z,0.57
2023-03-11T07:36:17.296Z,0.47
2023-03-11T07:38:43.938Z,0.50
2023-03-11T07:41:11.760Z,0.80
2023-03-11T07:43:39.368Z,0.70
2023-03-11T07:46:10.032Z,0.80
2023-03-11T07:48:37.984Z,0.57
2023-03-11T07:51:28.825Z,0.53
2023-03-11T07:53:56.990Z,0.93
2023-03-11T07:56:24.530Z,0.75
2023-03-11T07:58:51.518Z,0.47
2023-03-11T08:01:20.408Z,1.38
2023-03-11T08:03:50.115Z,0.67
2023-03-11T08:06:23.344Z,0.30
2023-03-11T08:08:51.487Z,0.70
2023-03-11T08:11:18.532Z,0.40
2023-03-11T08:13:47.347Z,0.60
2023-03-11T08:16:16.232Z,0.53
2023-03-11T08:18:43.553Z,0.57
2023-03-11T08:21:13.503Z,0.70
2023-03-11T08:23:40.274Z,0.63
2023-03-11T08:26:09.381Z,0.57
2023-03-11T08:28:36.283Z,0.50
2023-03-11T08:31:03.355Z,0.50
2023-03-11T08:33:29.724Z,0.30
2023-03-11T08:35:56.465Z,0.63
2023-03-11T08:38:22.887Z,0.40
2023-03-11T08:40:49.255Z,0.40
2023-03-11T08:43:15.823Z,0.40
2023-03-11T08:45:42.776Z,0.57
2023-03-11T08:48:11.202Z,0.68
2023-03-11T08:50:52.958Z,0.50
2023-03-11T08:53:20.900Z,0.50
2023-03-11T08:55:47.271Z,0.50
2023-03-11T08:58:13.690Z,0.50
2023-03-11T09:00:40.047Z,0.95
2023-03-11T09:03:06.502Z,0.40
2023-03-11T09:05:32.991Z,0.40
2023-03-11T09:07:59.454Z,0.50
2023-03-11T09:10:25.961Z,0.45
2023-03-11T09:12:52.402Z,0.30
2023-03-11T09:15:18.918Z,0.40
2023-03-11T09:17:45.300Z,0.37
2023-03-11T09:20:15.118Z,1.02
2023-03-11T09:22:41.737Z,0.40
2023-03-11T09:25:09.362Z,0.57
2023-03-11T09:27:35.673Z,0.43
2023-03-11T09:30:02.122Z,0.40
2023-03-11T09:32:28.577Z,0.32
2023-03-11T09:34:55.038Z,0.40
2023-03-11T09:37:21.410Z,0.32
2023-03-11T09:39:47.790Z,0.30
2023-03-11T09:42:22.618Z,0.30
2023-03-11T09:45:03.763Z,0.40
2023-03-11T09:47:55.574Z,0.43
2023-03-11T09:50:34.628Z,0.63
2023-03-11T09:53:14.419Z,0.30
2023-03-11T09:55:53.544Z,0.30
2023-03-11T09:58:34.303Z,1.10
2023-03-11T10:01:00.823Z,0.35
2023-03-11T10:03:37.404Z,0.40
2023-03-11T10:06:16.865Z,0.35
2023-03-11T10:09:20.865Z,0.50
2023-03-11T10:12:01.750Z,0.30
2023-03-11T10:14:47.508Z,0.30
2023-03-11T10:17:51.200Z,0.57
2023-03-11T10:20:27.960Z,0.47
2023-03-11T10:23:42.347Z,0.60
2023-03-11T10:26:15.773Z,0.40
2023-03-11T10:28:52.885Z,0.40
2023-03-11T10:31:37.994Z,0.63
2023-03-11T10:34:21.687Z,0.40
2023-03-11T10:37:04.640Z,0.50
2023-03-11T10:39:32.852Z,0.50
2023-03-11T10:42:05.954Z,0.40
2023-03-11T10:44:39.112Z,0.55
2023-03-11T10:47:06.644Z,0.50
2023-03-11T10:49:33.805Z,0.40
2023-03-11T10:52:04.040Z,0.25
2023-03-11T10:54:32.011Z,0.52
2023-03-11T10:57:04.617Z,0.50
2023-03-11T10:59:50.459Z,0.50
2023-03-11T11:02:32.716Z,0.50
2023-03-11T11:05:11.174Z,0.50
2023-03-11T11:07:41.342Z,0.50
2023-03-11T11:10:28.281Z,0.40
2023-03-11T11:12:56.384Z,0.30
2023-03-11T11:15:24.166Z,0.40
2023-03-11T11:17:52.358Z,0.50
2023-03-11T11:20:20.673Z,0.30
2023-03-11T11:23:01.417Z,0.40
2023-03-11T11:25:40.597Z,0.40
2023-03-11T11:28:19.095Z,0.40
2023-03-11T11:30:59.221Z,0.30
2023-03-11T11:33:27.707Z,0.50
2023-03-11T11:35:57.857Z,0.30
2023-03-11T11:38:26.693Z,0.30
2023-03-11T11:40:56.167Z,0.43
2023-03-11T11:43:31.363Z,0.43
2023-03-11T11:46:02.092Z,0.77
2023-03-11T11:48:39.520Z,0.30
2023-03-11T11:51:19.943Z,0.40
2023-03-11T11:54:01.832Z,0.30
2023-03-11T11:56:28.213Z,0.68
2023-03-11T11:58:55.388Z,0.63
2023-03-11T12:01:39.135Z,0.50
2023-03-11T12:04:25.845Z,0.40
2023-03-11T12:07:04.497Z,0.60
2023-03-11T12:10:21.643Z,0.50
2023-03-11T12:13:07.661Z,0.38
2023-03-11T12:15:38.351Z,0.60
2023-03-11T12:18:10.300Z,0.60
2023-03-11T12:20:39.645Z,0.37
2023-03-11T12:23:17.268Z,0.93
2023-03-11T12:26:04.820Z,0.45
2023-03-11T12:28:37.198Z,0.57
2023-03-11T12:31:09.010Z,0.30
2023-03-11T12:33:42.488Z,0.40
2023-03-11T12:36:23.678Z,0.40
2023-03-11T12:38:52.023Z,0.50
2023-03-11T12:41:28.776Z,0.38
2023-03-11T12:44:01.105Z,0.50
2023-03-11T12:46:58.659Z,0.33
2023-03-11T12:49:32.990Z,0.30
2023-03-11T12:52:04.268Z,0.43
2023-03-11T12:54:31.836Z,0.80
2023-03-11T12:57:02.067Z,0.50
2023-03-11T12:59:34.271Z,0.40
2023-03-11T13:02:09.833Z,0.57
2023-03-11T13:04:58.530Z,1.38
2023-03-11T13:07:50.990Z,0.30
2023-03-11T13:10:36.082Z,0.60
2023-03-11T13:13:21.925Z,0.30
2023-03-11T13:15:48.559Z,0.55
2023-03-11T13:18:24.613Z,0.40
2023-03-11T13:20:59.121Z,0.40
2023-03-11T13:23:34.894Z,0.50
2023-03-11T13:26:35.669Z,0.30
2023-03-11T13:29:23.828Z,0.47
2023-03-11T13:32:33.943Z,0.30
2023-03-11T13:35:34.572Z,0.32
2023-03-11T13:38:39.417Z,0.40
2023-03-11T13:41:28.000Z,2.10
2023-03-11T13:43:59.842Z,0.40
2023-03-11T13:46:38.302Z,0.40
2023-03-11T13:49:33.553Z,0.85
2023-03-11T13:52:02.121Z,0.32
2023-03-11T13:54:49.299Z,0.50
2023-03-11T13:57:36.289Z,0.30
2023-03-11T14:00:28.404Z,0.38
2023-03-11T14:02:57.354Z,0.57
2023-03-11T14:05:25.202Z,0.40
2023-03-11T14:07:51.687Z,0.50
2023-03-11T14:10:29.830Z,0.20
2023-03-11T14:13:06.660Z,0.40
2023-03-11T14:15:43.900Z,0.50
2023-03-11T14:18:43.621Z,0.30
2023-03-11T14:21:16.755Z,0.30
2023-03-11T14:23:46.423Z,0.40
2023-03-11T14:26:20.999Z,0.60
2023-03-11T14:28:51.221Z,0.38
2023-03-11T14:31:30.021Z,0.30
2023-03-11T14:33:58.573Z,0.30
2023-03-11T14:36:24.902Z,0.30
2023-03-11T14:38:51.281Z,0.30
2023-03-11T14:41:17.758Z,0.40
2023-03-11T14:43:48.914Z,0.30
2023-03-11T14:46:21.652Z,0.50
2023-03-11T14:48:49.254Z,0.30
2023-03-11T14:51:26.604Z,0.30
2023-03-11T14:54:17.159Z,0.40
2023-03-11T14:56:51.240Z,0.30
2023-03-11T14:59:26.852Z,0.50
2023-03-11T15:01:56.867Z,0.30
2023-03-11T15:04:33.239Z,0.40
2023-03-11T15:07:01.452Z,0.35
2023-03-11T15:09:29.522Z,0.30
2023-03-11T15:11:59.192Z,0.30
2023-03-11T15:14:33.410Z,0.43
2023-03-11T15:17:41.272Z,0.32
2023-03-11T15:20:33.102Z,0.38
2023-03-11T15:23:07.631Z,0.30
2023-03-11T15:25:37.352Z,0.37
2023-03-11T15:28:28.178Z,0.47
2023-03-11T15:31:17.890Z,0.40
2023-03-11T15:33:45.024Z,0.45
2023-03-11T15:36:29.554Z,0.30
2023-03-11T15:39:18.533Z,0.70
2023-03-11T15:41:47.818Z,0.60
2023-03-11T15:44:49.600Z,0.40
2023-03-11T15:47:21.497Z,0.30
2023-03-11T15:49:48.958Z,0.30
2023-03-11T15:52:16.712Z,0.40
2023-03-11T15:54:47.334Z,0.50
2023-03-11T15:57:27.960Z,0.30
2023-03-11T15:59:56.882Z,0.50
2023-03-11T16:02:26.716Z,0.65
2023-03-11T16:04:53.901Z,0.30
2023-03-11T16:07:36.504Z,0.35
2023-03-11T16:10:06.028Z,0.30
2023-03-11T16:12:32.632Z,0.38
2023-03-11T16:14:59.028Z,0.20
2023-03-11T16:17:25.452Z,0.40
2023-03-11T16:19:51.854Z,0.60
2023-03-11T16:22:36.788Z,0.47
2023-03-11T16:25:04.362Z,0.60
2023-03-11T16:27:30.745Z,0.63
2023-03-11T16:29:57.201Z,0.40
2023-03-11T16:32:23.604Z,0.43
2023-03-11T16:34:49.958Z,0.40
2023-03-11T16:37:20.670Z,0.47
2023-03-11T16:39:48.433Z,0.85
2023-03-11T16:42:22.457Z,0.70
2023-03-11T16:44:48.833Z,0.50
2023-03-11T16:47:15.339Z,0.60
2023-03-11T16:49:41.705Z,0.57
2023-03-11T16:52:08.129Z,0.57
2023-03-11T16:54:35.066Z,0.90
2023-03-11T16:57:01.408Z,0.50
2023-03-11T16:59:27.743Z,0.70
2023-03-11T17:01:54.215Z,0.65
2023-03-11T17:04:20.646Z,0.60
2023-03-11T17:06:47.061Z,0.97
2023-03-11T17:09:13.679Z,0.55
2023-03-11T17:11:40.021Z,0.73
2023-03-11T17:14:15.903Z,0.80
2023-03-11T17:16:44.580Z,0.85
2023-03-11T17:19:11.161Z,0.50
2023-03-11T17:21:37.627Z,0.70
2023-03-11T17:24:04.115Z,0.68
2023-03-11T17:26:31.603Z,1.00
2023-03-11T17:28:58.256Z,1.52
2023-03-11T17:31:24.741Z,1.37
2023-03-11T17:33:51.281Z,1.25
2023-03-11T17:36:18.560Z,1.73
2023-03-11T17:38:47.187Z,1.80
2023-03-11T17:41:16.172Z,1.33
2023-03-11T17:43:43.427Z,2.00
2023-03-11T17:46:14.280Z,1.40
2023-03-11T17:48:41.664Z,2.03
2023-03-11T17:51:10.182Z,1.67
2023-03-11T17:53:38.218Z,1.90
2023-03-11T17:56:06.010Z,1.70
2023-03-11T17:58:33.125Z,1.60
2023-03-11T18:01:03.552Z,1.50
2023-03-11T18:03:30.006Z,1.45
2023-03-11T18:06:01.867Z,1.95
2023-03-11T18:08:29.117Z,2.23
2023-03-11T18:10:59.217Z,2.92
2023-03-11T18:13:26.029Z,3.10
2023-03-11T18:16:00.246Z,2.97
2023-03-11T18:18:27.409Z,3.40
2023-03-11T18:20:53.913Z,3.00
2023-03-11T18:23:20.418Z,3.17
2023-03-11T18:25:51.836Z,2.30
2023-03-11T18:28:18.428Z,2.47
2023-03-11T18:30:44.811Z,1.92
2023-03-11T18:33:11.171Z,2.10
2023-03-11T18:35:37.556Z,2.05
2023-03-11T18:38:03.981Z,1.90
2023-03-11T18:40:30.345Z,2.25
2023-03-11T18:42:56.732Z,2.38
2023-03-11T18:45:23.149Z,2.57
2023-03-11T18:47:49.465Z,4.50
2023-03-11T18:50:16.001Z,4.90
2023-03-11T18:52:42.322Z,5.10
2023-03-11T18:55:08.858Z,5.45
2023-03-11T18:57:35.239Z,3.93
2023-03-11T19:00:01.661Z,3.67
2023-03-11T19:02:28.036Z,3.67
2023-03-11T19:04:54.528Z,4.10
2023-03-11T19:07:22.497Z,4.10
2023-03-11T19:09:49.326Z,4.13
2023-03-11T19:12:15.681Z,6.00
2023-03-11T19:14:42.290Z,7.85
2023-03-11T19:17:08.698Z,6.60
2023-03-11T19:19:35.098Z,6.07
2023-03-11T19:22:01.473Z,5.63
2023-03-11T19:24:27.917Z,5.47
2023-03-11T19:26:54.265Z,4.80
2023-03-11T19:29:21.615Z,4.03
2023-03-11T19:31:48.001Z,4.78
2023-03-11T19:34:14.410Z,4.50
2023-03-11T19:36:40.797Z,4.25
2023-03-11T19:39:07.921Z,3.95
2023-03-11T19:41:34.679Z,4.43
2023-03-11T19:44:01.417Z,4.47
2023-03-11T19:46:29.258Z,5.00
2023-03-11T19:48:56.708Z,5.15
2023-03-11T19:51:23.282Z,5.32
2023-03-11T19:53:49.653Z,6.13
2023-03-11T19:56:16.032Z,5.63
2023-03-11T19:58:42.752Z,6.23
2023-03-11T20:01:18.998Z,6.57
2023-03-11T20:03:45.882Z,6.28
2023-03-11T20:06:16.163Z,6.88
2023-03-11T20:08:43.645Z,9.00
2023-03-11T20:11:10.067Z,9.77
2023-03-11T20:13:37.961Z,10.88
2023-03-11T20:16:09.968Z,12.35
2023-03-11T20:18:36.554Z,12.38
2023-03-11T20:21:08.290Z,13.02
2023-03-11T20:23:35.438Z,11.77
2023-03-11T20:26:17.077Z,12.07
2023-03-11T20:28:43.826Z,12.07
2023-03-11T20:31:16.529Z,11.20
2023-03-11T20:33:43.593Z,12.13
2023-03-11T20:36:13.992Z,12.37
2023-03-11T20:38:40.887Z,12.75
2023-03-11T20:41:09.536Z,12.45
2023-03-11T20:43:37.630Z,12.75
2023-03-11T20:46:05.420Z,11.95
2023-03-11T20:48:32.239Z,12.37
2023-03-11T20:51:04.018Z,11.57
2023-03-11T20:53:31.397Z,12.00
2023-03-11T20:55:59.525Z,12.07
2023-03-11T20:58:26.517Z,10.60
2023-03-11T21:00:52.948Z,12.63
2023-03-11T21:03:19.421Z,12.32
2023-03-11T21:05:45.866Z,11.45
2023-03-11T21:08:12.648Z,11.50
2023-03-11T21:10:39.272Z,12.00
2023-03-11T21:13:06.256Z,11.47
2023-03-11T21:15:34.273Z,11.43
2023-03-11T21:18:00.676Z,11.75
2023-03-11T21:20:27.134Z,10.02
2023-03-11T21:22:53.466Z,12.88
2023-03-11T21:25:19.852Z,11.83
2023-03-11T21:27:46.209Z,11.98
2023-03-11T21:30:13.182Z,12.48
2023-03-11T21:32:39.666Z,12.13
2023-03-11T21:35:06.236Z,11.93
2023-03-11T21:37:32.996Z,12.37
2023-03-11T21:39:59.348Z,12.48
2023-03-11T21:42:29.345Z,11.80
2023-03-11T21:44:55.921Z,11.60
2023-03-11T21:47:22.416Z,12.57
2023-03-11T21:49:48.814Z,10.43
2023-03-11T21:52:15.205Z,9.45
2023-03-11T21:54:41.631Z,10.35
2023-03-11T21:57:08.027Z,8.82
2023-03-11T21:59:34.665Z,8.85
2023-03-11T22:02:03.164Z,8.67
2023-03-11T22:04:31.085Z,10.05
2023-03-11T22:06:57.764Z,8.60
2023-03-11T22:09:25.674Z,9.10
2023-03-11T22:11:52.202Z,9.32
2023-03-11T22:14:18.567Z,9.30
2023-03-11T22:16:44.964Z,9.15
2023-03-11T22:19:11.502Z,8.75
2023-03-11T22:21:38.157Z,9.38
2023-03-11T22:24:04.773Z,9.48
2023-03-11T22:26:31.123Z,9.57
2023-03-11T22:28:57.511Z,9.90
2023-03-11T22:31:24.034Z,8.73
2023-03-11T22:33:50.626Z,9.43
2023-03-11T22:36:17.186Z,8.93
2023-03-11T22:38:44.929Z,8.77
2023-03-11T22:41:12.820Z,8.30
2023-03-11T22:43:39.554Z,7.70
2023-03-11T22:46:06.781Z,7.60
2023-03-11T22:48:33.901Z,7.88
2023-03-11T22:51:00.278Z,7.03
2023-03-11T22:53:26.973Z,7.45
2023-03-11T22:55:53.385Z,8.05
2023-03-11T22:58:20.368Z,8.00
2023-03-11T23:00:46.856Z,7.88
2023-03-11T23:03:13.801Z,7.43
2023-03-11T23:05:43.352Z,8.00
2023-03-11T23:08:12.525Z,7.05
2023-03-11T23:10:44.502Z,7.40
2023-03-11T23:13:11.518Z,7.55
2023-03-11T23:15:40.409Z,7.30
2023-03-11T23:18:06.889Z,7.40
2023-03-11T23:20:37.582Z,7.13
2023-03-11T23:23:04.547Z,7.35
2023-03-11T23:25:31.603Z,7.63
2023-03-11T23:27:57.950Z,7.43
2023-03-11T23:30:24.457Z,7.15
2023-03-11T23:32:50.817Z,7.40
2023-03-11T23:35:17.253Z,7.78
2023-03-11T23:37:48.067Z,7.25
2023-03-11T23:40:14.804Z,7.43
2023-03-11T23:42:41.133Z,7.80
2023-03-11T23:45:08.345Z,7.65
2023-03-11T23:47:35.172Z,7.70
2023-03-11T23:50:01.653Z,7.10
2023-03-11T23:52:28.047Z,6.77
2023-03-11T23:54:55.119Z,7.13
2023-03-11T23:57:21.726Z,6.95
2023-03-11T23:59:48.291Z,6.53
